Merrimack River @ Lowell, Ma

Merrimack River at Lowell
 Total Drainage Area: 4,635 sq. miles 
 Drainage Area Controlled by Corps Dams: 1,619 sq. miles (35%) 
 Warning Flow/Stage: 29,900 cfs / 49.0 feet 
 Flood Flow/Stage: 46,050 cfs / 52.0 feet 
Date Time
(Eastern)
Stage
(ft)
Flow
(cfs)
CSM
(cfs / sq. mi.)
Feb-26 02:30 am 44.01 7,552 1.6
Feb-26 01:30 am 43.98 7,450 1.6
Feb-26 12:30 am 43.93 7,281 1.6
Feb-25 11:30 pm 43.95 7,348 1.6
Feb-25 10:30 pm 43.94 7,314 1.6
Feb-25 09:30 pm 43.95 7,348 1.6
Feb-25 08:30 pm 43.97 7,416 1.6
Feb-25 07:30 pm 43.98 7,450 1.6
Feb-25 06:30 pm 44.00 7,518 1.6
Feb-25 05:30 pm 43.97 7,416 1.6
Feb-25 04:30 pm 43.97 7,416 1.6
Feb-25 03:30 pm 43.99 7,484 1.6
Feb-25 02:30 pm 43.99 7,484 1.6
Feb-25 01:30 pm 44.01 7,552 1.6
Feb-25 12:30 pm 44.02 7,586 1.6
Feb-25 11:30 am 44.05 7,689 1.7
Feb-25 10:30 am 44.08 7,793 1.7
Feb-25 09:30 am 44.08 7,793 1.7
Feb-25 08:30 am 44.10 7,862 1.7
Feb-25 07:30 am 44.09 7,828 1.7
Feb-25 06:30 am 44.09 7,828 1.7
Feb-25 05:30 am 44.09 7,828 1.7
Feb-25 04:30 am 44.10 7,862 1.7
Feb-25 03:30 am 44.14 8,002 1.7
Feb-25 02:30 am 44.15 8,037 1.7
Report Generated February 26, 2024 03:04 am